sensor_id;sensor_type;location;lat;lon;timestamp;P1;durP1;ratioP1;P2;durP2;ratioP2
53245;SDS011;39569;51.090;-1.786;2022-10-31T00:00:05;46.90;;;9.77;;
53245;SDS011;39569;51.090;-1.786;2022-10-31T00:02:33;42.40;;;10.48;;
53245;SDS011;39569;51.090;-1.786;2022-10-31T00:05:00;49.17;;;11.95;;
53245;SDS011;39569;51.090;-1.786;2022-10-31T00:07:27;47.28;;;10.30;;
53245;SDS011;39569;51.090;-1.786;2022-10-31T00:09:54;42.47;;;10.40;;
53245;SDS011;39569;51.090;-1.786;2022-10-31T00:12:20;49.08;;;9.05;;
53245;SDS011;39569;51.090;-1.786;2022-10-31T00:14:47;33.65;;;9.00;;
53245;SDS011;39569;51.090;-1.786;2022-10-31T00:17:15;47.97;;;11.07;;
53245;SDS011;39569;51.090;-1.786;2022-10-31T00:19:42;58.25;;;10.63;;
53245;SDS011;39569;51.090;-1.786;2022-10-31T00:22:09;47.03;;;11.40;;
53245;SDS011;39569;51.090;-1.786;2022-10-31T00:24:36;35.33;;;8.40;;
53245;SDS011;39569;51.090;-1.786;2022-10-31T00:27:03;36.80;;;9.93;;
53245;SDS011;39569;51.090;-1.786;2022-10-31T00:29:29;40.05;;;9.73;;
53245;SDS011;39569;51.090;-1.786;2022-10-31T00:31:56;29.15;;;10.05;;
53245;SDS011;39569;51.090;-1.786;2022-10-31T00:34:24;43.03;;;9.77;;
53245;SDS011;39569;51.090;-1.786;2022-10-31T00:36:51;42.28;;;10.32;;
53245;SDS011;39569;51.090;-1.786;2022-10-31T00:39:18;36.75;;;8.80;;
53245;SDS011;39569;51.090;-1.786;2022-10-31T00:41:45;41.85;;;9.80;;
53245;SDS011;39569;51.090;-1.786;2022-10-31T00:44:11;34.83;;;8.37;;
53245;SDS011;39569;51.090;-1.786;2022-10-31T00:46:38;50.50;;;7.55;;
53245;SDS011;39569;51.090;-1.786;2022-10-31T00:49:05;31.15;;;7.22;;
53245;SDS011;39569;51.090;-1.786;2022-10-31T00:51:33;42.40;;;10.43;;
53245;SDS011;39569;51.090;-1.786;2022-10-31T00:54:00;25.23;;;8.23;;
53245;SDS011;39569;51.090;-1.786;2022-10-31T00:56:27;44.95;;;10.73;;
53245;SDS011;39569;51.090;-1.786;2022-10-31T00:58:53;36.08;;;8.55;;
53245;SDS011;39569;51.090;-1.786;2022-10-31T01:01:20;36.55;;;8.43;;
53245;SDS011;39569;51.090;-1.786;2022-10-31T01:03:47;26.23;;;7.05;;
53245;SDS011;39569;51.090;-1.786;2022-10-31T01:06:14;48.55;;;9.02;;
53245;SDS011;39569;51.090;-1.786;2022-10-31T01:08:42;29.92;;;8.35;;
53245;SDS011;39569;51.090;-1.786;2022-10-31T01:11:10;28.65;;;8.35;;
53245;SDS011;39569;51.090;-1.786;2022-10-31T01:13:38;35.95;;;7.05;;
53245;SDS011;39569;51.090;-1.786;2022-10-31T01:16:06;34.03;;;7.63;;
53245;SDS011;39569;51.090;-1.786;2022-10-31T01:18:36;31.10;;;6.45;;
53245;SDS011;39569;51.090;-1.786;2022-10-31T01:21:03;28.90;;;7.18;;
53245;SDS011;39569;51.090;-1.786;2022-10-31T01:23:31;26.80;;;7.63;;
53245;SDS011;39569;51.090;-1.786;2022-10-31T01:26:01;24.08;;;6.85;;
53245;SDS011;39569;51.090;-1.786;2022-10-31T01:28:29;31.20;;;7.50;;
53245;SDS011;39569;51.090;-1.786;2022-10-31T01:30:59;51.53;;;7.72;;
53245;SDS011;39569;51.090;-1.786;2022-10-31T01:33:27;32.20;;;7.80;;
53245;SDS011;39569;51.090;-1.786;2022-10-31T01:35:53;33.70;;;6.65;;
53245;SDS011;39569;51.090;-1.786;2022-10-31T01:38:20;32.95;;;8.02;;
53245;SDS011;39569;51.090;-1.786;2022-10-31T01:40:48;33.33;;;8.20;;
53245;SDS011;39569;51.090;-1.786;2022-10-31T01:43:16;35.03;;;8.07;;
53245;SDS011;39569;51.090;-1.786;2022-10-31T01:45:43;46.53;;;6.50;;
53245;SDS011;39569;51.090;-1.786;2022-10-31T01:48:16;29.08;;;6.40;;
53245;SDS011;39569;51.090;-1.786;2022-10-31T01:50:47;29.10;;;8.15;;
53245;SDS011;39569;51.090;-1.786;2022-10-31T01:53:17;32.67;;;7.65;;
53245;SDS011;39569;51.090;-1.786;2022-10-31T01:55:45;34.55;;;7.40;;
53245;SDS011;39569;51.090;-1.786;2022-10-31T01:58:15;34.35;;;8.13;;
53245;SDS011;39569;51.090;-1.786;2022-10-31T02:00:46;23.10;;;6.68;;
53245;SDS011;39569;51.090;-1.786;2022-10-31T02:03:16;43.47;;;8.52;;
53245;SDS011;39569;51.090;-1.786;2022-10-31T02:05:45;36.50;;;7.27;;
53245;SDS011;39569;51.090;-1.786;2022-10-31T02:08:14;20.77;;;5.15;;
53245;SDS011;39569;51.090;-1.786;2022-10-31T02:10:45;35.40;;;7.13;;
53245;SDS011;39569;51.090;-1.786;2022-10-31T02:13:12;38.60;;;7.85;;
53245;SDS011;39569;51.090;-1.786;2022-10-31T02:15:41;43.80;;;7.60;;
53245;SDS011;39569;51.090;-1.786;2022-10-31T02:18:10;59.08;;;8.27;;
53245;SDS011;39569;51.090;-1.786;2022-10-31T02:20:39;39.88;;;7.25;;
53245;SDS011;39569;51.090;-1.786;2022-10-31T02:26:31;28.05;;;7.90;;
53245;SDS011;39569;51.090;-1.786;2022-10-31T02:29:16;40.47;;;8.00;;
53245;SDS011;39569;51.090;-1.786;2022-10-31T02:32:01;33.42;;;7.25;;
53245;SDS011;39569;51.090;-1.786;2022-10-31T02:34:36;34.03;;;8.32;;
53245;SDS011;39569;51.090;-1.786;2022-10-31T02:37:10;33.67;;;8.25;;
53245;SDS011;39569;51.090;-1.786;2022-10-31T02:39:42;35.85;;;7.43;;
53245;SDS011;39569;51.090;-1.786;2022-10-31T02:42:19;41.40;;;6.75;;
53245;SDS011;39569;51.090;-1.786;2022-10-31T02:44:57;25.10;;;7.32;;
53245;SDS011;39569;51.090;-1.786;2022-10-31T02:47:32;51.00;;;7.43;;
53245;SDS011;39569;51.090;-1.786;2022-10-31T02:50:04;30.00;;;6.25;;
53245;SDS011;39569;51.090;-1.786;2022-10-31T02:52:35;39.08;;;8.45;;
53245;SDS011;39569;51.090;-1.786;2022-10-31T02:55:09;30.00;;;7.18;;
53245;SDS011;39569;51.090;-1.786;2022-10-31T02:57:37;40.65;;;8.70;;
53245;SDS011;39569;51.090;-1.786;2022-10-31T03:00:07;45.25;;;9.05;;
53245;SDS011;39569;51.090;-1.786;2022-10-31T03:05:34;41.85;;;8.85;;
53245;SDS011;39569;51.090;-1.786;2022-10-31T03:08:12;46.17;;;8.85;;
53245;SDS011;39569;51.090;-1.786;2022-10-31T03:10:47;32.80;;;7.85;;
53245;SDS011;39569;51.090;-1.786;2022-10-31T03:13:21;29.73;;;8.00;;
53245;SDS011;39569;51.090;-1.786;2022-10-31T03:15:59;49.83;;;7.97;;
53245;SDS011;39569;51.090;-1.786;2022-10-31T03:18:36;43.38;;;7.28;;
53245;SDS011;39569;51.090;-1.786;2022-10-31T03:21:05;39.47;;;8.68;;
53245;SDS011;39569;51.090;-1.786;2022-10-31T03:23:36;45.45;;;8.30;;
53245;SDS011;39569;51.090;-1.786;2022-10-31T03:26:05;31.50;;;7.10;;
53245;SDS011;39569;51.090;-1.786;2022-10-31T03:28:37;41.88;;;6.68;;
53245;SDS011;39569;51.090;-1.786;2022-10-31T03:31:07;27.50;;;7.68;;
53245;SDS011;39569;51.090;-1.786;2022-10-31T03:33:38;34.60;;;7.55;;
53245;SDS011;39569;51.090;-1.786;2022-10-31T03:36:08;60.80;;;9.82;;
53245;SDS011;39569;51.090;-1.786;2022-10-31T03:38:37;62.40;;;10.88;;
53245;SDS011;39569;51.090;-1.786;2022-10-31T03:41:06;36.33;;;7.90;;
53245;SDS011;39569;51.090;-1.786;2022-10-31T03:43:38;39.92;;;8.82;;
53245;SDS011;39569;51.090;-1.786;2022-10-31T03:46:09;30.85;;;7.47;;
53245;SDS011;39569;51.090;-1.786;2022-10-31T03:48:36;34.25;;;7.72;;
53245;SDS011;39569;51.090;-1.786;2022-10-31T03:51:06;49.67;;;12.40;;
53245;SDS011;39569;51.090;-1.786;2022-10-31T03:56:12;34.55;;;7.18;;
53245;SDS011;39569;51.090;-1.786;2022-10-31T03:58:45;37.90;;;9.25;;
53245;SDS011;39569;51.090;-1.786;2022-10-31T04:01:15;54.97;;;11.18;;
53245;SDS011;39569;51.090;-1.786;2022-10-31T04:03:46;41.33;;;7.25;;
53245;SDS011;39569;51.090;-1.786;2022-10-31T04:06:14;37.88;;;8.95;;
53245;SDS011;39569;51.090;-1.786;2022-10-31T04:08:45;43.67;;;8.50;;
53245;SDS011;39569;51.090;-1.786;2022-10-31T04:11:16;41.15;;;9.65;;
53245;SDS011;39569;51.090;-1.786;2022-10-31T04:13:47;37.90;;;11.20;;
53245;SDS011;39569;51.090;-1.786;2022-10-31T04:16:15;44.15;;;9.07;;
53245;SDS011;39569;51.090;-1.786;2022-10-31T04:18:43;28.23;;;7.32;;
53245;SDS011;39569;51.090;-1.786;2022-10-31T04:21:11;27.33;;;7.88;;
53245;SDS011;39569;51.090;-1.786;2022-10-31T04:23:38;37.38;;;9.05;;
53245;SDS011;39569;51.090;-1.786;2022-10-31T04:26:05;29.40;;;7.13;;
53245;SDS011;39569;51.090;-1.786;2022-10-31T04:28:32;36.83;;;9.20;;
53245;SDS011;39569;51.090;-1.786;2022-10-31T04:30:59;44.65;;;8.50;;
53245;SDS011;39569;51.090;-1.786;2022-10-31T04:33:26;30.65;;;6.50;;
53245;SDS011;39569;51.090;-1.786;2022-10-31T04:35:52;44.17;;;10.27;;
53245;SDS011;39569;51.090;-1.786;2022-10-31T04:38:21;39.58;;;7.75;;
53245;SDS011;39569;51.090;-1.786;2022-10-31T04:40:47;38.38;;;9.45;;
53245;SDS011;39569;51.090;-1.786;2022-10-31T04:43:14;47.63;;;9.27;;
53245;SDS011;39569;51.090;-1.786;2022-10-31T04:45:41;49.43;;;9.67;;
53245;SDS011;39569;51.090;-1.786;2022-10-31T04:48:07;39.33;;;9.85;;
53245;SDS011;39569;51.090;-1.786;2022-10-31T04:50:34;38.03;;;7.88;;
53245;SDS011;39569;51.090;-1.786;2022-10-31T04:53:01;60.40;;;7.97;;
53245;SDS011;39569;51.090;-1.786;2022-10-31T04:55:29;53.38;;;10.10;;
53245;SDS011;39569;51.090;-1.786;2022-10-31T04:57:56;54.10;;;7.97;;
53245;SDS011;39569;51.090;-1.786;2022-10-31T05:00:23;34.38;;;8.77;;
53245;SDS011;39569;51.090;-1.786;2022-10-31T05:02:51;37.95;;;9.65;;
53245;SDS011;39569;51.090;-1.786;2022-10-31T05:05:20;59.78;;;10.02;;
53245;SDS011;39569;51.090;-1.786;2022-10-31T05:07:48;35.75;;;7.50;;
53245;SDS011;39569;51.090;-1.786;2022-10-31T05:10:16;45.08;;;8.75;;
53245;SDS011;39569;51.090;-1.786;2022-10-31T05:12:49;41.20;;;9.35;;
53245;SDS011;39569;51.090;-1.786;2022-10-31T05:15:17;33.38;;;8.45;;
53245;SDS011;39569;51.090;-1.786;2022-10-31T05:17:45;48.70;;;8.18;;
53245;SDS011;39569;51.090;-1.786;2022-10-31T05:20:12;53.40;;;10.18;;
53245;SDS011;39569;51.090;-1.786;2022-10-31T05:22:41;50.85;;;8.15;;
53245;SDS011;39569;51.090;-1.786;2022-10-31T05:25:09;40.42;;;9.38;;
53245;SDS011;39569;51.090;-1.786;2022-10-31T05:27:38;52.22;;;9.35;;
53245;SDS011;39569;51.090;-1.786;2022-10-31T05:30:07;54.67;;;11.02;;
53245;SDS011;39569;51.090;-1.786;2022-10-31T05:32:38;51.45;;;9.55;;
53245;SDS011;39569;51.090;-1.786;2022-10-31T05:35:05;43.13;;;8.50;;
53245;SDS011;39569;51.090;-1.786;2022-10-31T05:37:34;47.22;;;10.05;;
53245;SDS011;39569;51.090;-1.786;2022-10-31T05:40:01;42.58;;;9.85;;
53245;SDS011;39569;51.090;-1.786;2022-10-31T05:42:28;37.30;;;7.40;;
53245;SDS011;39569;51.090;-1.786;2022-10-31T05:44:55;39.00;;;8.13;;
53245;SDS011;39569;51.090;-1.786;2022-10-31T05:47:23;39.85;;;8.68;;
53245;SDS011;39569;51.090;-1.786;2022-10-31T05:49:50;30.77;;;8.45;;
53245;SDS011;39569;51.090;-1.786;2022-10-31T05:52:17;51.13;;;9.00;;
53245;SDS011;39569;51.090;-1.786;2022-10-31T05:54:44;31.70;;;7.93;;
53245;SDS011;39569;51.090;-1.786;2022-10-31T05:57:11;50.10;;;10.13;;
53245;SDS011;39569;51.090;-1.786;2022-10-31T05:59:37;22.05;;;6.90;;
53245;SDS011;39569;51.090;-1.786;2022-10-31T06:02:04;26.83;;;6.72;;
53245;SDS011;39569;51.090;-1.786;2022-10-31T06:04:32;53.85;;;9.55;;
53245;SDS011;39569;51.090;-1.786;2022-10-31T06:06:59;44.80;;;8.32;;
53245;SDS011;39569;51.090;-1.786;2022-10-31T06:09:26;34.85;;;7.47;;
53245;SDS011;39569;51.090;-1.786;2022-10-31T06:11:53;49.60;;;8.07;;
53245;SDS011;39569;51.090;-1.786;2022-10-31T06:14:20;54.80;;;9.05;;
53245;SDS011;39569;51.090;-1.786;2022-10-31T06:16:46;40.83;;;11.30;;
53245;SDS011;39569;51.090;-1.786;2022-10-31T06:19:13;41.67;;;8.77;;
53245;SDS011;39569;51.090;-1.786;2022-10-31T06:21:41;31.95;;;7.60;;
53245;SDS011;39569;51.090;-1.786;2022-10-31T06:24:08;33.92;;;8.07;;
53245;SDS011;39569;51.090;-1.786;2022-10-31T06:26:35;45.85;;;7.35;;
53245;SDS011;39569;51.090;-1.786;2022-10-31T06:29:02;30.50;;;8.18;;
53245;SDS011;39569;51.090;-1.786;2022-10-31T06:31:29;35.53;;;7.07;;
53245;SDS011;39569;51.090;-1.786;2022-10-31T06:33:56;36.95;;;7.60;;
53245;SDS011;39569;51.090;-1.786;2022-10-31T06:36:23;39.78;;;8.00;;
53245;SDS011;39569;51.090;-1.786;2022-10-31T06:38:51;54.45;;;9.00;;
53245;SDS011;39569;51.090;-1.786;2022-10-31T06:41:18;39.80;;;9.82;;
53245;SDS011;39569;51.090;-1.786;2022-10-31T06:43:45;34.95;;;7.57;;
53245;SDS011;39569;51.090;-1.786;2022-10-31T06:46:12;58.00;;;9.73;;
53245;SDS011;39569;51.090;-1.786;2022-10-31T06:48:40;38.95;;;8.82;;
53245;SDS011;39569;51.090;-1.786;2022-10-31T06:51:06;41.50;;;8.75;;
53245;SDS011;39569;51.090;-1.786;2022-10-31T06:53:33;57.55;;;9.20;;
53245;SDS011;39569;51.090;-1.786;2022-10-31T06:56:02;35.05;;;9.38;;
53245;SDS011;39569;51.090;-1.786;2022-10-31T06:58:28;40.38;;;8.38;;
53245;SDS011;39569;51.090;-1.786;2022-10-31T07:00:58;22.80;;;6.03;;
53245;SDS011;39569;51.090;-1.786;2022-10-31T07:03:25;30.83;;;8.20;;
53245;SDS011;39569;51.090;-1.786;2022-10-31T07:05:52;40.63;;;7.00;;
53245;SDS011;39569;51.090;-1.786;2022-10-31T07:08:21;32.85;;;7.57;;
53245;SDS011;39569;51.090;-1.786;2022-10-31T07:10:50;29.45;;;8.07;;
53245;SDS011;39569;51.090;-1.786;2022-10-31T07:13:20;27.15;;;6.63;;
53245;SDS011;39569;51.090;-1.786;2022-10-31T07:15:50;30.98;;;6.63;;
53245;SDS011;39569;51.090;-1.786;2022-10-31T07:18:18;43.22;;;9.15;;
53245;SDS011;39569;51.090;-1.786;2022-10-31T07:20:45;42.42;;;9.00;;
53245;SDS011;39569;51.090;-1.786;2022-10-31T07:23:12;32.15;;;7.82;;
53245;SDS011;39569;51.090;-1.786;2022-10-31T07:25:39;43.55;;;7.88;;
53245;SDS011;39569;51.090;-1.786;2022-10-31T07:28:06;44.28;;;9.20;;
53245;SDS011;39569;51.090;-1.786;2022-10-31T07:30:35;36.72;;;7.80;;
53245;SDS011;39569;51.090;-1.786;2022-10-31T07:33:03;32.58;;;8.13;;
53245;SDS011;39569;51.090;-1.786;2022-10-31T07:35:30;33.03;;;8.63;;
53245;SDS011;39569;51.090;-1.786;2022-10-31T07:37:58;41.97;;;7.38;;
53245;SDS011;39569;51.090;-1.786;2022-10-31T07:43:00;45.78;;;8.63;;
53245;SDS011;39569;51.090;-1.786;2022-10-31T07:45:26;26.02;;;7.65;;
53245;SDS011;39569;51.090;-1.786;2022-10-31T07:47:55;34.10;;;8.38;;
53245;SDS011;39569;51.090;-1.786;2022-10-31T07:50:23;45.60;;;9.70;;
53245;SDS011;39569;51.090;-1.786;2022-10-31T07:52:57;35.35;;;8.48;;
53245;SDS011;39569;51.090;-1.786;2022-10-31T07:55:25;23.50;;;6.72;;
53245;SDS011;39569;51.090;-1.786;2022-10-31T07:57:55;23.52;;;7.15;;
53245;SDS011;39569;51.090;-1.786;2022-10-31T08:00:22;27.52;;;7.05;;
53245;SDS011;39569;51.090;-1.786;2022-10-31T08:02:57;36.20;;;8.38;;
53245;SDS011;39569;51.090;-1.786;2022-10-31T08:05:24;26.35;;;7.03;;
53245;SDS011;39569;51.090;-1.786;2022-10-31T08:07:50;29.88;;;7.00;;
53245;SDS011;39569;51.090;-1.786;2022-10-31T08:10:17;41.78;;;9.20;;
53245;SDS011;39569;51.090;-1.786;2022-10-31T08:12:44;35.13;;;8.95;;
53245;SDS011;39569;51.090;-1.786;2022-10-31T08:15:11;28.58;;;8.13;;
53245;SDS011;39569;51.090;-1.786;2022-10-31T08:17:39;34.27;;;6.27;;
53245;SDS011;39569;51.090;-1.786;2022-10-31T08:20:08;34.03;;;8.07;;
53245;SDS011;39569;51.090;-1.786;2022-10-31T08:22:35;22.45;;;6.68;;
53245;SDS011;39569;51.090;-1.786;2022-10-31T08:25:02;27.38;;;5.45;;
53245;SDS011;39569;51.090;-1.786;2022-10-31T08:27:29;30.10;;;6.47;;
53245;SDS011;39569;51.090;-1.786;2022-10-31T08:29:56;27.30;;;5.93;;
53245;SDS011;39569;51.090;-1.786;2022-10-31T08:32:23;27.92;;;6.57;;
53245;SDS011;39569;51.090;-1.786;2022-10-31T08:34:50;26.48;;;6.43;;
53245;SDS011;39569;51.090;-1.786;2022-10-31T08:37:18;22.23;;;6.30;;
53245;SDS011;39569;51.090;-1.786;2022-10-31T08:39:45;27.25;;;5.93;;
53245;SDS011;39569;51.090;-1.786;2022-10-31T08:42:12;33.45;;;6.88;;
53245;SDS011;39569;51.090;-1.786;2022-10-31T08:44:39;22.88;;;6.53;;
53245;SDS011;39569;51.090;-1.786;2022-10-31T08:47:06;29.30;;;5.95;;
53245;SDS011;39569;51.090;-1.786;2022-10-31T08:49:32;27.90;;;7.10;;
53245;SDS011;39569;51.090;-1.786;2022-10-31T08:51:59;19.13;;;5.82;;
53245;SDS011;39569;51.090;-1.786;2022-10-31T08:54:27;18.23;;;5.65;;
53245;SDS011;39569;51.090;-1.786;2022-10-31T08:56:54;21.05;;;6.28;;
53245;SDS011;39569;51.090;-1.786;2022-10-31T08:59:21;15.60;;;4.63;;
53245;SDS011;39569;51.090;-1.786;2022-10-31T09:01:48;11.73;;;5.22;;
53245;SDS011;39569;51.090;-1.786;2022-10-31T09:04:15;16.35;;;5.28;;
53245;SDS011;39569;51.090;-1.786;2022-10-31T09:06:42;19.55;;;5.65;;
53245;SDS011;39569;51.090;-1.786;2022-10-31T09:09:09;24.92;;;4.82;;
53245;SDS011;39569;51.090;-1.786;2022-10-31T09:11:37;17.83;;;6.68;;
53245;SDS011;39569;51.090;-1.786;2022-10-31T09:14:04;12.70;;;5.18;;
53245;SDS011;39569;51.090;-1.786;2022-10-31T09:16:30;20.83;;;4.57;;
53245;SDS011;39569;51.090;-1.786;2022-10-31T09:18:57;17.05;;;4.75;;
53245;SDS011;39569;51.090;-1.786;2022-10-31T09:21:24;15.23;;;5.13;;
53245;SDS011;39569;51.090;-1.786;2022-10-31T09:23:51;12.35;;;4.20;;
53245;SDS011;39569;51.090;-1.786;2022-10-31T09:26:18;19.60;;;6.07;;
53245;SDS011;39569;51.090;-1.786;2022-10-31T09:28:47;13.68;;;4.45;;
53245;SDS011;39569;51.090;-1.786;2022-10-31T09:31:13;17.42;;;5.43;;
53245;SDS011;39569;51.090;-1.786;2022-10-31T09:33:40;19.13;;;5.40;;
53245;SDS011;39569;51.090;-1.786;2022-10-31T09:36:07;15.48;;;4.18;;
53245;SDS011;39569;51.090;-1.786;2022-10-31T09:38:34;26.08;;;5.22;;
53245;SDS011;39569;51.090;-1.786;2022-10-31T09:41:03;15.23;;;3.90;;
53245;SDS011;39569;51.090;-1.786;2022-10-31T09:43:43;29.88;;;5.40;;
53245;SDS011;39569;51.090;-1.786;2022-10-31T09:46:22;11.15;;;3.45;;
53245;SDS011;39569;51.090;-1.786;2022-10-31T09:48:59;15.88;;;4.90;;
53245;SDS011;39569;51.090;-1.786;2022-10-31T09:51:48;21.13;;;4.97;;
53245;SDS011;39569;51.090;-1.786;2022-10-31T09:54:21;15.68;;;5.00;;
53245;SDS011;39569;51.090;-1.786;2022-10-31T09:59:27;19.05;;;5.90;;
53245;SDS011;39569;51.090;-1.786;2022-10-31T10:02:00;24.50;;;5.90;;
53245;SDS011;39569;51.090;-1.786;2022-10-31T10:04:33;23.73;;;5.70;;
53245;SDS011;39569;51.090;-1.786;2022-10-31T10:07:06;14.20;;;4.95;;
53245;SDS011;39569;51.090;-1.786;2022-10-31T10:09:39;31.90;;;6.15;;
53245;SDS011;39569;51.090;-1.786;2022-10-31T10:12:08;21.63;;;4.63;;
53245;SDS011;39569;51.090;-1.786;2022-10-31T10:14:53;18.75;;;6.20;;
53245;SDS011;39569;51.090;-1.786;2022-10-31T10:17:34;26.00;;;4.85;;
53245;SDS011;39569;51.090;-1.786;2022-10-31T10:20:11;20.33;;;5.43;;
53245;SDS011;39569;51.090;-1.786;2022-10-31T10:22:54;13.30;;;4.95;;
53245;SDS011;39569;51.090;-1.786;2022-10-31T10:25:28;11.65;;;4.72;;
53245;SDS011;39569;51.090;-1.786;2022-10-31T10:28:06;12.82;;;4.35;;
53245;SDS011;39569;51.090;-1.786;2022-10-31T10:30:46;12.30;;;3.83;;
53245;SDS011;39569;51.090;-1.786;2022-10-31T10:33:16;20.77;;;5.00;;
53245;SDS011;39569;51.090;-1.786;2022-10-31T10:35:47;9.65;;;3.47;;
53245;SDS011;39569;51.090;-1.786;2022-10-31T10:38:18;18.83;;;4.07;;
53245;SDS011;39569;51.090;-1.786;2022-10-31T10:40:49;17.80;;;4.45;;
53245;SDS011;39569;51.090;-1.786;2022-10-31T10:43:21;16.25;;;4.40;;
53245;SDS011;39569;51.090;-1.786;2022-10-31T10:45:52;16.75;;;4.63;;
53245;SDS011;39569;51.090;-1.786;2022-10-31T10:48:43;14.10;;;3.92;;
53245;SDS011;39569;51.090;-1.786;2022-10-31T10:51:15;19.52;;;5.25;;
53245;SDS011;39569;51.090;-1.786;2022-10-31T10:53:50;14.02;;;4.28;;
53245;SDS011;39569;51.090;-1.786;2022-10-31T10:56:37;12.23;;;3.30;;
53245;SDS011;39569;51.090;-1.786;2022-10-31T10:59:13;19.40;;;6.57;;
53245;SDS011;39569;51.090;-1.786;2022-10-31T11:01:44;12.65;;;3.85;;
53245;SDS011;39569;51.090;-1.786;2022-10-31T11:04:19;13.70;;;3.75;;
53245;SDS011;39569;51.090;-1.786;2022-10-31T11:06:58;18.90;;;3.90;;
53245;SDS011;39569;51.090;-1.786;2022-10-31T11:09:26;18.05;;;4.72;;
53245;SDS011;39569;51.090;-1.786;2022-10-31T11:11:53;13.20;;;4.50;;
53245;SDS011;39569;51.090;-1.786;2022-10-31T11:14:21;9.15;;;3.75;;
53245;SDS011;39569;51.090;-1.786;2022-10-31T11:16:51;8.05;;;3.40;;
53245;SDS011;39569;51.090;-1.786;2022-10-31T11:19:21;11.32;;;3.97;;
53245;SDS011;39569;51.090;-1.786;2022-10-31T11:21:50;13.15;;;4.35;;
53245;SDS011;39569;51.090;-1.786;2022-10-31T11:24:17;8.77;;;2.95;;
53245;SDS011;39569;51.090;-1.786;2022-10-31T11:26:46;7.88;;;3.22;;
53245;SDS011;39569;51.090;-1.786;2022-10-31T11:29:15;7.65;;;2.97;;
53245;SDS011;39569;51.090;-1.786;2022-10-31T11:31:46;11.57;;;4.30;;
53245;SDS011;39569;51.090;-1.786;2022-10-31T11:34:22;12.20;;;4.07;;
53245;SDS011;39569;51.090;-1.786;2022-10-31T11:36:56;8.60;;;3.90;;
53245;SDS011;39569;51.090;-1.786;2022-10-31T11:39:30;15.38;;;4.40;;
53245;SDS011;39569;51.090;-1.786;2022-10-31T11:41:59;12.73;;;4.07;;
53245;SDS011;39569;51.090;-1.786;2022-10-31T11:44:28;18.55;;;3.60;;
53245;SDS011;39569;51.090;-1.786;2022-10-31T11:46:58;13.85;;;3.85;;
53245;SDS011;39569;51.090;-1.786;2022-10-31T11:49:30;10.35;;;2.83;;
53245;SDS011;39569;51.090;-1.786;2022-10-31T11:52:02;12.30;;;3.58;;
53245;SDS011;39569;51.090;-1.786;2022-10-31T11:54:32;8.32;;;3.85;;
53245;SDS011;39569;51.090;-1.786;2022-10-31T11:57:19;19.73;;;3.58;;
53245;SDS011;39569;51.090;-1.786;2022-10-31T11:59:52;8.45;;;3.55;;
53245;SDS011;39569;51.090;-1.786;2022-10-31T12:02:21;7.32;;;2.47;;
53245;SDS011;39569;51.090;-1.786;2022-10-31T12:04:51;12.65;;;4.72;;
53245;SDS011;39569;51.090;-1.786;2022-10-31T12:07:22;5.57;;;2.63;;
53245;SDS011;39569;51.090;-1.786;2022-10-31T12:09:50;8.45;;;3.45;;
53245;SDS011;39569;51.090;-1.786;2022-10-31T12:15:27;9.05;;;3.30;;
53245;SDS011;39569;51.090;-1.786;2022-10-31T12:23:28;4.60;;;2.50;;
53245;SDS011;39569;51.090;-1.786;2022-10-31T12:26:04;21.98;;;3.38;;
53245;SDS011;39569;51.090;-1.786;2022-10-31T12:28:41;23.33;;;4.05;;
53245;SDS011;39569;51.090;-1.786;2022-10-31T12:31:24;8.05;;;3.42;;
53245;SDS011;39569;51.090;-1.786;2022-10-31T12:34:02;4.47;;;1.73;;
53245;SDS011;39569;51.090;-1.786;2022-10-31T12:36:48;13.67;;;3.00;;
53245;SDS011;39569;51.090;-1.786;2022-10-31T12:39:24;12.25;;;2.97;;
53245;SDS011;39569;51.090;-1.786;2022-10-31T12:41:57;9.13;;;2.42;;
53245;SDS011;39569;51.090;-1.786;2022-10-31T12:44:40;8.35;;;3.13;;
53245;SDS011;39569;51.090;-1.786;2022-10-31T12:47:29;9.23;;;2.58;;
53245;SDS011;39569;51.090;-1.786;2022-10-31T12:50:31;6.95;;;2.30;;
53245;SDS011;39569;51.090;-1.786;2022-10-31T12:53:11;8.88;;;2.30;;
53245;SDS011;39569;51.090;-1.786;2022-10-31T12:55:53;5.70;;;1.92;;
53245;SDS011;39569;51.090;-1.786;2022-10-31T12:58:31;7.03;;;2.35;;
53245;SDS011;39569;51.090;-1.786;2022-10-31T13:01:03;10.32;;;2.70;;
53245;SDS011;39569;51.090;-1.786;2022-10-31T13:03:38;8.80;;;3.08;;
53245;SDS011;39569;51.090;-1.786;2022-10-31T13:06:12;8.60;;;3.40;;
53245;SDS011;39569;51.090;-1.786;2022-10-31T13:08:44;6.65;;;3.13;;
53245;SDS011;39569;51.090;-1.786;2022-10-31T13:11:15;10.55;;;2.97;;
53245;SDS011;39569;51.090;-1.786;2022-10-31T13:13:46;11.38;;;4.38;;
53245;SDS011;39569;51.090;-1.786;2022-10-31T13:16:20;12.25;;;3.42;;
53245;SDS011;39569;51.090;-1.786;2022-10-31T13:18:52;6.72;;;2.97;;
53245;SDS011;39569;51.090;-1.786;2022-10-31T13:21:25;9.07;;;3.58;;
53245;SDS011;39569;51.090;-1.786;2022-10-31T13:23:56;11.90;;;3.60;;
53245;SDS011;39569;51.090;-1.786;2022-10-31T13:26:31;12.95;;;3.78;;
53245;SDS011;39569;51.090;-1.786;2022-10-31T13:29:05;6.72;;;2.38;;
53245;SDS011;39569;51.090;-1.786;2022-10-31T13:31:41;16.65;;;3.58;;
53245;SDS011;39569;51.090;-1.786;2022-10-31T13:34:09;17.33;;;4.00;;
53245;SDS011;39569;51.090;-1.786;2022-10-31T13:36:47;5.25;;;2.53;;
53245;SDS011;39569;51.090;-1.786;2022-10-31T13:39:23;13.75;;;3.60;;
53245;SDS011;39569;51.090;-1.786;2022-10-31T13:41:59;7.95;;;2.58;;
53245;SDS011;39569;51.090;-1.786;2022-10-31T13:44:29;12.75;;;3.28;;
53245;SDS011;39569;51.090;-1.786;2022-10-31T13:47:02;12.25;;;3.20;;
53245;SDS011;39569;51.090;-1.786;2022-10-31T13:49:37;15.68;;;3.00;;
53245;SDS011;39569;51.090;-1.786;2022-10-31T13:52:06;4.78;;;2.15;;
53245;SDS011;39569;51.090;-1.786;2022-10-31T13:54:41;7.82;;;2.53;;
53245;SDS011;39569;51.090;-1.786;2022-10-31T13:57:14;16.00;;;3.60;;
53245;SDS011;39569;51.090;-1.786;2022-10-31T13:59:46;23.53;;;4.87;;
53245;SDS011;39569;51.090;-1.786;2022-10-31T14:02:15;5.70;;;2.50;;
53245;SDS011;39569;51.090;-1.786;2022-10-31T14:04:46;10.20;;;3.42;;
53245;SDS011;39569;51.090;-1.786;2022-10-31T14:07:17;4.35;;;2.47;;
53245;SDS011;39569;51.090;-1.786;2022-10-31T14:09:56;5.50;;;2.13;;
53245;SDS011;39569;51.090;-1.786;2022-10-31T14:12:29;8.68;;;2.50;;
53245;SDS011;39569;51.090;-1.786;2022-10-31T14:14:58;6.43;;;2.22;;
53245;SDS011;39569;51.090;-1.786;2022-10-31T14:17:33;6.03;;;3.20;;
53245;SDS011;39569;51.090;-1.786;2022-10-31T14:20:26;9.45;;;4.03;;
53245;SDS011;39569;51.090;-1.786;2022-10-31T14:23:09;11.25;;;3.00;;
53245;SDS011;39569;51.090;-1.786;2022-10-31T14:25:39;8.35;;;3.28;;
53245;SDS011;39569;51.090;-1.786;2022-10-31T14:28:18;6.43;;;3.13;;
53245;SDS011;39569;51.090;-1.786;2022-10-31T14:30:53;7.45;;;3.13;;
53245;SDS011;39569;51.090;-1.786;2022-10-31T14:33:22;7.97;;;2.60;;
53245;SDS011;39569;51.090;-1.786;2022-10-31T14:35:53;11.27;;;3.58;;
53245;SDS011;39569;51.090;-1.786;2022-10-31T14:38:36;14.57;;;3.55;;
53245;SDS011;39569;51.090;-1.786;2022-10-31T14:41:18;13.25;;;4.22;;
53245;SDS011;39569;51.090;-1.786;2022-10-31T14:44:12;20.73;;;4.93;;
53245;SDS011;39569;51.090;-1.786;2022-10-31T14:47:07;14.45;;;4.68;;
53245;SDS011;39569;51.090;-1.786;2022-10-31T14:49:49;11.25;;;4.95;;
53245;SDS011;39569;51.090;-1.786;2022-10-31T14:52:29;13.57;;;5.35;;
53245;SDS011;39569;51.090;-1.786;2022-10-31T14:54:57;13.38;;;4.85;;
53245;SDS011;39569;51.090;-1.786;2022-10-31T14:57:28;8.35;;;3.72;;
53245;SDS011;39569;51.090;-1.786;2022-10-31T14:59:58;11.35;;;3.90;;
53245;SDS011;39569;51.090;-1.786;2022-10-31T15:02:30;12.90;;;4.65;;
53245;SDS011;39569;51.090;-1.786;2022-10-31T15:05:02;7.18;;;4.20;;